createdAt,value
2022-12-24T00:01:43.863Z,100770.69
2022-12-24T00:04:49.013Z,100786.06
2022-12-24T00:07:54.266Z,100792.00
2022-12-24T00:10:59.652Z,100785.38
2022-12-24T00:14:06.477Z,100788.75
2022-12-24T00:17:12.108Z,100802.06
2022-12-24T00:20:18.172Z,100794.34
2022-12-24T00:23:23.681Z,100805.25
2022-12-24T00:26:29.103Z,100806.19
2022-12-24T00:29:35.962Z,100810.44
2022-12-24T00:32:41.149Z,100803.72
2022-12-24T00:35:47.264Z,100800.22
2022-12-24T00:38:52.544Z,100814.72
2022-12-24T00:41:57.790Z,100813.19
2022-12-24T00:45:04.986Z,100826.63
2022-12-24T00:48:12.303Z,100821.50
2022-12-24T00:51:17.791Z,100824.72
2022-12-24T00:54:23.146Z,100839.63
2022-12-24T00:57:28.561Z,100829.13
2022-12-24T01:00:35.460Z,100837.78
2022-12-24T01:03:40.917Z,100835.13
2022-12-24T01:06:45.655Z,100824.78
2022-12-24T01:09:50.740Z,100829.88
2022-12-24T01:12:56.123Z,100838.78
2022-12-24T01:16:02.860Z,100849.97
2022-12-24T01:19:08.201Z,100850.72
2022-12-24T01:22:13.566Z,100853.91
2022-12-24T01:25:18.707Z,100853.19
2022-12-24T01:28:23.980Z,100863.13
2022-12-24T01:31:30.736Z,100856.91
2022-12-24T01:34:36.444Z,100863.25
2022-12-24T01:37:44.718Z,100855.81
2022-12-24T01:41:07.527Z,100852.16
2022-12-24T01:44:33.474Z,100844.94
2022-12-24T01:47:42.940Z,100854.03
2022-12-24T01:50:48.309Z,100872.38
2022-12-24T01:53:56.671Z,100878.25
2022-12-24T01:57:04.592Z,100882.06
2022-12-24T02:00:15.375Z,100878.00
2022-12-24T02:03:22.333Z,100885.19
2022-12-24T02:06:28.439Z,100888.81
2022-12-24T02:09:34.628Z,100896.56
2022-12-24T02:12:40.463Z,100887.41
2022-12-24T02:15:55.630Z,100903.91
2022-12-24T02:19:11.489Z,100901.41
2022-12-24T02:22:18.215Z,100906.63
2022-12-24T02:25:50.653Z,100909.75
2022-12-24T02:29:18.607Z,100914.47
2022-12-24T02:32:26.987Z,100917.38
2022-12-24T02:35:38.843Z,100915.50
2022-12-24T02:38:48.022Z,100907.91
2022-12-24T02:42:08.815Z,100908.13
2022-12-24T02:45:16.081Z,100913.69
2022-12-24T02:48:24.283Z,100912.56
2022-12-24T02:51:29.462Z,100915.28
2022-12-24T02:54:35.355Z,100921.25
2022-12-24T02:57:57.679Z,100916.84
2022-12-24T03:01:17.724Z,100926.16
2022-12-24T03:04:40.435Z,100927.69
2022-12-24T03:07:49.213Z,100935.56
2022-12-24T03:10:56.854Z,100944.38
2022-12-24T03:14:02.763Z,100945.09
2022-12-24T03:17:07.922Z,100959.28
2022-12-24T03:20:20.287Z,100959.19
2022-12-24T03:23:25.714Z,100964.00
2022-12-24T03:26:32.305Z,100975.53
2022-12-24T03:29:37.844Z,100978.66
2022-12-24T03:32:43.195Z,100990.25
2022-12-24T03:35:50.195Z,100990.19
2022-12-24T03:38:55.331Z,100991.16
2022-12-24T03:42:00.473Z,100991.06
2022-12-24T03:45:06.163Z,100989.81
2022-12-24T03:48:14.228Z,100986.06
2022-12-24T03:51:22.421Z,100995.59
2022-12-24T03:54:27.591Z,101007.69
2022-12-24T03:57:32.885Z,100993.03
2022-12-24T04:00:38.218Z,101010.03
2022-12-24T04:03:43.408Z,101002.41
2022-12-24T04:06:49.977Z,100993.75
2022-12-24T04:09:55.246Z,100997.13
2022-12-24T04:13:00.738Z,101008.03
2022-12-24T04:16:08.318Z,101016.09
2022-12-24T04:19:13.498Z,101012.25
2022-12-24T04:22:20.364Z,101022.66
2022-12-24T04:25:25.552Z,101025.66
2022-12-24T04:28:31.153Z,101025.97
2022-12-24T04:31:36.370Z,101019.66
2022-12-24T04:34:41.542Z,101017.06
2022-12-24T04:37:48.159Z,101021.22
2022-12-24T04:41:00.644Z,101012.13
2022-12-24T04:44:05.832Z,101023.28
2022-12-24T04:47:13.336Z,101019.81
2022-12-24T04:50:18.660Z,101015.69
2022-12-24T04:53:25.149Z,101008.59
2022-12-24T04:56:32.481Z,101015.72
2022-12-24T04:59:37.848Z,101011.94
2022-12-24T05:02:43.205Z,101021.19
2022-12-24T05:05:48.742Z,101028.63
2022-12-24T05:08:57.869Z,101028.41
2022-12-24T05:12:03.120Z,101036.47
2022-12-24T05:15:09.610Z,101044.94
2022-12-24T05:18:14.784Z,101051.06
2022-12-24T05:21:21.801Z,101050.16
2022-12-24T05:24:46.071Z,101050.91
2022-12-24T05:27:51.667Z,101061.91
2022-12-24T05:30:57.047Z,101052.81
2022-12-24T05:34:03.329Z,101051.06
2022-12-24T05:37:08.610Z,101058.34
2022-12-24T05:40:16.477Z,101046.91
2022-12-24T05:43:21.661Z,101069.63
2022-12-24T05:46:27.462Z,101073.88
2022-12-24T05:49:32.642Z,101070.00
2022-12-24T05:52:37.854Z,101075.72
2022-12-24T05:55:44.687Z,101078.44
2022-12-24T05:58:51.035Z,101081.03
2022-12-24T06:01:56.273Z,101080.56
2022-12-24T06:05:01.580Z,101098.00
2022-12-24T06:08:07.087Z,101098.53
2022-12-24T06:11:15.462Z,101112.59
2022-12-24T06:14:20.513Z,101114.38
2022-12-24T06:17:25.814Z,101113.41
2022-12-24T06:20:31.097Z,101121.81
2022-12-24T06:23:37.604Z,101111.41
2022-12-24T06:26:44.652Z,101117.59
2022-12-24T06:29:49.892Z,101127.84
2022-12-24T06:32:55.069Z,101121.25
2022-12-24T06:36:01.439Z,101123.56
2022-12-24T06:39:06.704Z,101134.31
2022-12-24T06:42:13.822Z,101143.91
2022-12-24T06:45:19.406Z,101143.44
2022-12-24T06:48:24.533Z,101142.69
2022-12-24T06:51:29.678Z,101145.03
2022-12-24T06:54:34.889Z,101142.56
2022-12-24T06:57:41.414Z,101150.63
2022-12-24T07:00:46.561Z,101149.72
2022-12-24T07:03:51.863Z,101151.09
2022-12-24T07:06:57.086Z,101147.97
2022-12-24T07:10:02.290Z,101155.13
2022-12-24T07:13:08.918Z,101168.31
2022-12-24T07:16:14.661Z,101174.91
2022-12-24T07:19:20.157Z,101173.44
2022-12-24T07:22:25.603Z,101175.94
2022-12-24T07:25:30.461Z,101183.34
2022-12-24T07:28:37.061Z,101183.34
2022-12-24T07:31:42.270Z,101191.81
2022-12-24T07:34:47.737Z,101195.31
2022-12-24T07:37:52.967Z,101188.25
2022-12-24T07:40:58.305Z,101199.50
2022-12-24T07:44:05.490Z,101196.94
2022-12-24T07:47:11.066Z,101200.31
2022-12-24T07:50:16.204Z,101209.59
2022-12-24T07:53:21.754Z,101224.47
2022-12-24T07:56:28.114Z,101236.56
2022-12-24T07:59:34.714Z,101240.78
2022-12-24T08:02:40.434Z,101229.25
2022-12-24T08:05:45.745Z,101239.56
2022-12-24T08:08:51.162Z,101244.69
2022-12-24T08:11:57.060Z,101251.72
2022-12-24T08:15:03.699Z,101252.06
2022-12-24T08:18:10.541Z,101251.88
2022-12-24T08:21:15.786Z,101259.03
2022-12-24T08:24:22.477Z,101258.28
2022-12-24T08:27:27.928Z,101255.97
2022-12-24T08:30:34.452Z,101271.75
2022-12-24T08:33:39.391Z,101275.53
2022-12-24T08:36:45.838Z,101269.78
2022-12-24T08:39:50.751Z,101282.94
2022-12-24T08:42:56.047Z,101270.84
2022-12-24T08:46:06.931Z,101284.72
2022-12-24T08:49:12.915Z,101283.69
2022-12-24T08:52:18.437Z,101295.38
2022-12-24T08:55:23.597Z,101296.09
2022-12-24T08:58:28.506Z,101294.03
2022-12-24T09:01:35.476Z,101292.44
2022-12-24T09:04:43.480Z,101299.50
2022-12-24T09:07:48.618Z,101306.88
2022-12-24T09:10:53.932Z,101313.34
2022-12-24T09:13:59.008Z,101310.44
2022-12-24T09:17:05.688Z,101318.88
2022-12-24T09:20:13.173Z,101312.28
2022-12-24T09:23:18.457Z,101344.31
2022-12-24T09:26:25.538Z,101333.97
2022-12-24T09:29:31.503Z,101334.44
2022-12-24T09:32:37.867Z,101340.03
2022-12-24T09:35:44.030Z,101333.03
2022-12-24T09:38:49.834Z,101341.84
2022-12-24T09:42:01.382Z,101340.84
2022-12-24T09:45:11.635Z,101346.38
2022-12-24T09:48:20.383Z,101339.25
2022-12-24T09:51:29.709Z,101342.97
2022-12-24T09:54:37.997Z,101359.34
2022-12-24T09:57:43.888Z,101362.03
2022-12-24T10:00:50.304Z,101363.03
2022-12-24T10:03:57.087Z,101357.25
2022-12-24T10:07:10.611Z,101365.53
2022-12-24T10:10:22.531Z,101373.22
2022-12-24T10:13:37.778Z,101365.44
2022-12-24T10:16:49.701Z,101364.84
2022-12-24T10:20:04.537Z,101366.03
2022-12-24T10:23:17.056Z,101377.97
2022-12-24T10:26:26.526Z,101377.69
2022-12-24T10:29:33.877Z,101384.09
2022-12-24T10:32:39.642Z,101375.69
2022-12-24T10:35:51.425Z,101374.16
2022-12-24T10:38:57.017Z,101386.38
2022-12-24T10:42:02.996Z,101389.16
2022-12-24T10:45:11.559Z,101391.19
2022-12-24T10:48:24.524Z,101390.63
2022-12-24T10:51:38.180Z,101394.03
2022-12-24T10:55:09.593Z,101384.19
2022-12-24T10:58:18.046Z,101395.03
2022-12-24T11:01:43.705Z,101392.44
2022-12-24T11:04:49.966Z,101397.28
2022-12-24T11:08:03.105Z,101390.53
2022-12-24T11:11:10.365Z,101396.75
2022-12-24T11:14:19.114Z,101398.00
2022-12-24T11:17:25.591Z,101397.34
2022-12-24T11:20:32.107Z,101399.34
2022-12-24T11:23:38.865Z,101395.44
2022-12-24T11:26:45.703Z,101395.47
2022-12-24T11:29:50.940Z,101399.00
2022-12-24T11:33:19.532Z,101394.09
2022-12-24T11:36:27.688Z,101399.75
2022-12-24T11:39:41.476Z,101391.47
2022-12-24T11:42:46.815Z,101397.50
2022-12-24T11:45:54.060Z,101414.59
2022-12-24T11:49:08.738Z,101405.69
2022-12-24T11:52:31.544Z,101418.09
2022-12-24T11:55:44.174Z,101422.69
2022-12-24T11:58:52.596Z,101424.72
2022-12-24T12:01:59.964Z,101429.19
2022-12-24T12:05:10.460Z,101422.53
2022-12-24T12:08:19.310Z,101430.22
2022-12-24T12:11:27.605Z,101432.47
2022-12-24T12:14:37.042Z,101437.50
2022-12-24T12:17:47.089Z,101446.75
2022-12-24T12:20:56.022Z,101449.38
2022-12-24T12:24:06.385Z,101449.56
2022-12-24T12:27:21.500Z,101440.72
2022-12-24T12:30:27.734Z,101451.66
2022-12-24T12:33:38.940Z,101452.97
2022-12-24T12:36:48.998Z,101450.31
2022-12-24T12:40:02.674Z,101457.13
2022-12-24T12:43:15.711Z,101453.66
2022-12-24T12:46:25.810Z,101462.13
2022-12-24T12:49:39.211Z,101463.38
2022-12-24T12:53:04.182Z,101457.94
2022-12-24T12:56:17.354Z,101461.44
2022-12-24T12:59:32.655Z,101450.59
2022-12-24T13:02:58.187Z,101450.03
2022-12-24T13:06:36.359Z,101463.84
2022-12-24T13:10:24.195Z,101470.44
2022-12-24T13:13:59.176Z,101479.69
2022-12-24T13:17:37.979Z,101487.00
2022-12-24T13:20:49.733Z,101484.53
2022-12-24T13:24:07.899Z,101486.75
2022-12-24T13:27:20.201Z,101494.03
2022-12-24T13:30:38.118Z,101505.97
2022-12-24T13:33:51.484Z,101511.47
2022-12-24T13:37:05.901Z,101514.91
2022-12-24T13:40:25.636Z,101525.50
2022-12-24T13:44:03.375Z,101530.00
2022-12-24T13:47:32.051Z,101535.84
2022-12-24T13:50:40.479Z,101533.63
2022-12-24T13:53:49.898Z,101541.63
2022-12-24T13:56:55.327Z,101535.97
2022-12-24T14:00:04.731Z,101540.84
2022-12-24T14:03:23.561Z,101548.06
2022-12-24T14:06:33.853Z,101548.69
2022-12-24T14:09:39.433Z,101553.94
2022-12-24T14:12:50.793Z,101553.41
2022-12-24T14:16:06.039Z,101560.00
2022-12-24T14:19:16.408Z,101567.47
2022-12-24T14:22:29.425Z,101568.09
2022-12-24T14:25:34.539Z,101576.16
2022-12-24T14:28:43.871Z,101590.06
2022-12-24T14:31:53.774Z,101586.72
2022-12-24T14:35:08.927Z,101589.25
2022-12-24T14:38:19.091Z,101592.94
2022-12-24T14:41:34.751Z,101588.72
2022-12-24T14:44:45.405Z,101593.31
2022-12-24T14:47:57.432Z,101585.53
2022-12-24T14:51:09.845Z,101589.53
2022-12-24T14:54:39.735Z,101584.44
2022-12-24T14:57:45.184Z,101602.03
2022-12-24T15:00:50.872Z,101599.00
2022-12-24T15:04:04.538Z,101595.41
2022-12-24T15:07:12.128Z,101599.59
2022-12-24T15:10:31.047Z,101615.97
2022-12-24T15:13:39.269Z,101606.00
2022-12-24T15:16:54.723Z,101602.22
2022-12-24T15:20:04.218Z,101618.34
2022-12-24T15:23:20.992Z,101622.56
2022-12-24T15:26:29.556Z,101614.41
2022-12-24T15:29:40.463Z,101618.22
2022-12-24T15:32:45.305Z,101619.53
2022-12-24T15:35:54.163Z,101616.38
2022-12-24T15:39:00.946Z,101615.25
2022-12-24T15:42:18.686Z,101607.63
2022-12-24T15:45:28.483Z,101620.84
2022-12-24T15:48:36.167Z,101612.28
2022-12-24T15:51:41.671Z,101621.84
2022-12-24T15:54:52.135Z,101616.19
2022-12-24T15:58:03.462Z,101632.28
2022-12-24T16:01:29.511Z,101634.53
2022-12-24T16:04:34.818Z,101633.00
2022-12-24T16:08:05.563Z,101637.56
2022-12-24T16:11:19.383Z,101634.13
2022-12-24T16:14:26.335Z,101629.63
2022-12-24T16:17:33.887Z,101629.63
2022-12-24T16:20:39.024Z,101620.28
2022-12-24T16:23:48.914Z,101625.50
2022-12-24T16:26:54.735Z,101642.44
2022-12-24T16:30:01.951Z,101633.78
2022-12-24T16:33:07.650Z,101637.25
2022-12-24T16:36:14.680Z,101634.56
2022-12-24T16:39:28.539Z,101629.16
2022-12-24T16:42:51.370Z,101634.13
2022-12-24T16:46:02.728Z,101635.63
2022-12-24T16:49:07.994Z,101645.84
2022-12-24T16:52:19.190Z,101654.59
2022-12-24T16:55:24.491Z,101641.19
2022-12-24T16:58:29.676Z,101661.88
2022-12-24T17:01:36.633Z,101651.69
2022-12-24T17:04:42.224Z,101661.16
2022-12-24T17:07:47.674Z,101657.25
2022-12-24T17:10:53.335Z,101653.88
2022-12-24T17:13:58.621Z,101657.38
2022-12-24T17:17:05.257Z,101664.34
2022-12-24T17:20:16.708Z,101669.50
2022-12-24T17:23:24.112Z,101655.47
2022-12-24T17:26:29.521Z,101666.16
2022-12-24T17:29:34.791Z,101672.38
2022-12-24T17:32:41.631Z,101674.44
2022-12-24T17:35:48.494Z,101679.25
2022-12-24T17:38:53.722Z,101682.97
2022-12-24T17:41:58.865Z,101681.50
2022-12-24T17:45:04.141Z,101687.19
2022-12-24T17:48:12.321Z,101681.88
2022-12-24T17:51:21.073Z,101684.06
2022-12-24T17:54:26.062Z,101698.16
2022-12-24T17:57:31.703Z,101697.78
2022-12-24T18:00:36.955Z,101700.69
2022-12-24T18:03:43.588Z,101710.34
2022-12-24T18:06:49.831Z,101710.09
2022-12-24T18:09:55.287Z,101698.72
2022-12-24T18:13:00.369Z,101708.97
2022-12-24T18:16:05.708Z,101705.72
2022-12-24T18:19:14.916Z,101722.78
2022-12-24T18:22:21.524Z,101717.00
2022-12-24T18:25:26.769Z,101726.34
2022-12-24T18:28:34.378Z,101730.75
2022-12-24T18:31:39.747Z,101730.19
2022-12-24T18:34:47.190Z,101737.59
2022-12-24T18:37:52.368Z,101730.03
2022-12-24T18:40:57.549Z,101736.03
2022-12-24T18:44:02.708Z,101730.47
2022-12-24T18:47:07.961Z,101734.84
2022-12-24T18:50:15.393Z,101737.59
2022-12-24T18:53:20.544Z,101743.22
2022-12-24T18:56:26.987Z,101746.78
2022-12-24T18:59:32.699Z,101747.69
2022-12-24T19:02:37.902Z,101744.56
2022-12-24T19:05:44.533Z,101749.75
2022-12-24T19:09:00.120Z,101747.72
2022-12-24T19:12:06.892Z,101740.91
2022-12-24T19:15:12.979Z,101745.66
2022-12-24T19:18:19.623Z,101741.16
2022-12-24T19:21:30.377Z,101747.16
2022-12-24T19:24:35.604Z,101752.50
2022-12-24T19:27:40.413Z,101747.56
2022-12-24T19:30:45.772Z,101762.81
2022-12-24T19:33:53.228Z,101760.66
2022-12-24T19:37:00.833Z,101770.78
2022-12-24T19:40:06.794Z,101765.06
2022-12-24T19:43:13.111Z,101779.28
2022-12-24T19:46:19.858Z,101795.88
2022-12-24T19:49:25.491Z,101776.56
2022-12-24T19:52:32.157Z,101799.44
2022-12-24T19:55:37.405Z,101787.13
2022-12-24T19:58:42.568Z,101786.75
2022-12-24T20:01:48.547Z,101795.00
2022-12-24T20:04:53.814Z,101804.78
2022-12-24T20:08:00.561Z,101803.06
2022-12-24T20:11:06.956Z,101801.94
2022-12-24T20:14:13.775Z,101804.19
2022-12-24T20:17:20.133Z,101800.13
2022-12-24T20:20:25.293Z,101812.59
2022-12-24T20:23:31.959Z,101802.56
2022-12-24T20:26:37.654Z,101814.03
2022-12-24T20:29:42.704Z,101825.94
2022-12-24T20:32:48.082Z,101820.72
2022-12-24T20:35:53.161Z,101822.78
2022-12-24T20:39:00.361Z,101820.00
2022-12-24T20:42:05.397Z,101836.81
2022-12-24T20:45:11.897Z,101827.41
2022-12-24T20:48:17.526Z,101830.44
2022-12-24T20:51:25.551Z,101831.84
2022-12-24T20:54:32.233Z,101828.53
2022-12-24T20:57:37.280Z,101835.03
2022-12-24T21:00:42.470Z,101836.31
2022-12-24T21:03:47.849Z,101829.69
2022-12-24T21:06:52.660Z,101829.06
2022-12-24T21:09:59.813Z,101837.97
2022-12-24T21:13:04.754Z,101838.47
2022-12-24T21:16:10.058Z,101844.13
2022-12-24T21:19:17.505Z,101853.25
2022-12-24T21:22:25.269Z,101864.97
2022-12-24T21:25:34.112Z,101864.03
2022-12-24T21:28:39.960Z,101863.28
2022-12-24T21:31:46.241Z,101873.97
2022-12-24T21:34:52.643Z,101883.50
2022-12-24T21:37:57.805Z,101888.94
2022-12-24T21:41:06.379Z,101874.38
2022-12-24T21:44:13.270Z,101877.31
2022-12-24T21:47:18.367Z,101881.69
2022-12-24T21:50:52.880Z,101881.22
2022-12-24T21:54:16.018Z,101897.78
2022-12-24T21:57:40.271Z,101897.00
2022-12-24T22:00:45.730Z,101882.75
2022-12-24T22:03:53.855Z,101894.75
2022-12-24T22:07:16.904Z,101887.56
2022-12-24T22:10:39.772Z,101894.84
2022-12-24T22:13:46.341Z,101883.22
2022-12-24T22:16:51.531Z,101887.03
2022-12-24T22:19:58.954Z,101885.00
2022-12-24T22:23:04.074Z,101882.38
2022-12-24T22:26:12.925Z,101881.59
2022-12-24T22:29:19.489Z,101891.31
2022-12-24T22:32:24.688Z,101887.44
2022-12-24T22:35:29.812Z,101886.59
2022-12-24T22:38:34.965Z,101893.59
2022-12-24T22:41:40.059Z,101895.41
2022-12-24T22:44:47.020Z,101900.16
2022-12-24T22:47:52.847Z,101893.31
2022-12-24T22:50:57.992Z,101902.09
2022-12-24T22:54:03.129Z,101906.72
2022-12-24T22:57:08.310Z,101904.94
2022-12-24T23:00:20.459Z,101916.00
2022-12-24T23:03:26.170Z,101907.97
2022-12-24T23:06:31.687Z,101913.03
2022-12-24T23:09:37.503Z,101908.38
2022-12-24T23:12:59.921Z,101905.44
2022-12-24T23:16:08.051Z,101915.66
2022-12-24T23:19:13.282Z,101917.03
2022-12-24T23:22:18.529Z,101918.69
2022-12-24T23:25:23.919Z,101925.72
2022-12-24T23:28:29.428Z,101927.44
2022-12-24T23:31:37.786Z,101929.78
2022-12-24T23:34:43.255Z,101935.13
2022-12-24T23:37:48.335Z,101929.81
2022-12-24T23:40:56.942Z,101935.78
2022-12-24T23:44:02.146Z,101932.41
2022-12-24T23:47:09.242Z,101941.91
2022-12-24T23:50:15.322Z,101933.19
2022-12-24T23:53:20.945Z,101940.63
2022-12-24T23:56:27.347Z,101937.53
2022-12-24T23:59:35.115Z,101930.06
